createdAt,value
2022-11-29T00:01:16.023Z,98368.25
2022-11-29T00:03:42.795Z,98361.63
2022-11-29T00:06:12.475Z,98361.44
2022-11-29T00:08:41.456Z,98362.47
2022-11-29T00:11:14.341Z,98353.97
2022-11-29T00:13:41.031Z,98361.75
2022-11-29T00:16:10.585Z,98352.88
2022-11-29T00:18:37.879Z,98353.78
2022-11-29T00:21:08.753Z,98353.91
2022-11-29T00:23:36.086Z,98344.09
2022-11-29T00:26:05.097Z,98354.88
2022-11-29T00:28:31.886Z,98342.22
2022-11-29T00:30:58.687Z,98346.19
2022-11-29T00:33:25.493Z,98345.28
2022-11-29T00:35:52.125Z,98344.25
2022-11-29T00:38:18.839Z,98339.78
2022-11-29T00:40:51.202Z,98343.72
2022-11-29T00:43:17.908Z,98343.03
2022-11-29T00:45:44.557Z,98339.00
2022-11-29T00:48:11.223Z,98352.69
2022-11-29T00:50:37.807Z,98344.13
2022-11-29T00:53:04.472Z,98335.34
2022-11-29T00:55:30.992Z,98339.84
2022-11-29T00:57:57.663Z,98335.78
2022-11-29T01:00:24.491Z,98339.22
2022-11-29T01:02:51.231Z,98334.38
2022-11-29T01:05:17.904Z,98342.72
2022-11-29T01:07:44.662Z,98338.25
2022-11-29T01:10:11.562Z,98343.22
2022-11-29T01:12:39.707Z,98334.03
2022-11-29T01:15:07.441Z,98340.09
2022-11-29T01:17:38.866Z,98339.81
2022-11-29T01:20:08.265Z,98335.63
2022-11-29T01:22:35.870Z,98339.66
2022-11-29T01:25:03.421Z,98330.81
2022-11-29T01:27:30.480Z,98341.81
2022-11-29T01:29:57.398Z,98340.72
2022-11-29T01:32:23.952Z,98318.72
2022-11-29T01:34:50.681Z,98335.13
2022-11-29T01:37:17.542Z,98330.75
2022-11-29T01:39:44.287Z,98327.41
2022-11-29T01:42:11.868Z,98327.38
2022-11-29T01:44:38.472Z,98321.41
2022-11-29T01:47:05.147Z,98328.84
2022-11-29T01:49:37.398Z,98320.69
2022-11-29T01:52:13.257Z,98327.38
2022-11-29T01:54:43.981Z,98327.91
2022-11-29T01:57:11.379Z,98317.47
2022-11-29T01:59:48.630Z,98314.13
2022-11-29T02:02:20.479Z,98315.88
2022-11-29T02:04:48.414Z,98315.19
2022-11-29T02:07:15.556Z,98312.75
2022-11-29T02:09:42.315Z,98311.56
2022-11-29T02:12:44.446Z,98308.16
2022-11-29T02:15:28.383Z,98307.47
2022-11-29T02:17:58.156Z,98302.44
2022-11-29T02:20:54.934Z,98303.19
2022-11-29T02:23:39.605Z,98291.94
2022-11-29T02:26:27.797Z,98291.13
2022-11-29T02:29:19.058Z,98291.94
2022-11-29T02:32:19.487Z,98290.63
2022-11-29T02:35:16.743Z,98292.22
2022-11-29T02:38:20.323Z,98282.97
2022-11-29T02:41:15.567Z,98283.16
2022-11-29T02:43:57.904Z,98281.81
2022-11-29T02:46:49.958Z,98287.25
2022-11-29T02:49:28.016Z,98278.88
2022-11-29T02:52:06.350Z,98274.88
2022-11-29T02:54:52.155Z,98269.44
2022-11-29T02:57:31.105Z,98261.44
2022-11-29T03:00:14.798Z,98280.16
2022-11-29T03:03:05.346Z,98271.63
2022-11-29T03:05:53.298Z,98273.47
2022-11-29T03:08:37.695Z,98265.81
2022-11-29T03:11:18.572Z,98266.53
2022-11-29T03:14:11.944Z,98273.88
2022-11-29T03:17:22.972Z,98273.88
2022-11-29T03:20:13.668Z,98266.38
2022-11-29T03:22:43.094Z,98264.88
2022-11-29T03:25:19.444Z,98271.72
2022-11-29T03:28:04.906Z,98268.66
2022-11-29T03:30:34.569Z,98266.31
2022-11-29T03:33:03.918Z,98277.03
2022-11-29T03:35:47.907Z,98269.31
2022-11-29T03:38:39.771Z,98276.66
2022-11-29T03:41:12.408Z,98266.19
2022-11-29T03:43:46.751Z,98273.03
2022-11-29T03:46:44.092Z,98272.75
2022-11-29T03:49:22.848Z,98270.53
2022-11-29T03:52:05.802Z,98265.16
2022-11-29T03:54:49.492Z,98263.56
2022-11-29T03:57:25.706Z,98268.44
2022-11-29T04:00:04.447Z,98265.56
2022-11-29T04:02:52.910Z,98270.84
2022-11-29T04:05:24.082Z,98277.75
2022-11-29T04:08:16.859Z,98273.34
2022-11-29T04:11:17.554Z,98269.09
2022-11-29T04:14:17.963Z,98274.72
2022-11-29T04:17:03.602Z,98273.63
2022-11-29T04:19:36.126Z,98261.66
2022-11-29T04:22:59.592Z,98266.91
2022-11-29T04:25:38.371Z,98268.75
2022-11-29T04:28:23.202Z,98267.34
2022-11-29T04:31:19.062Z,98265.50
2022-11-29T04:34:04.086Z,98267.22
2022-11-29T04:36:58.363Z,98270.84
2022-11-29T04:39:50.720Z,98262.88
2022-11-29T04:43:09.786Z,98260.28
2022-11-29T04:45:58.011Z,98266.97
2022-11-29T04:48:40.934Z,98265.56
2022-11-29T04:51:41.607Z,98263.91
2022-11-29T04:54:17.443Z,98263.91
2022-11-29T04:56:57.039Z,98269.91
2022-11-29T04:59:52.659Z,98274.63
2022-11-29T05:02:29.214Z,98274.41
2022-11-29T05:05:21.695Z,98272.75
2022-11-29T05:07:57.483Z,98276.75
2022-11-29T05:10:53.072Z,98280.16
2022-11-29T05:13:26.635Z,98270.91
2022-11-29T05:15:53.222Z,98276.00
2022-11-29T05:18:44.590Z,98271.66
2022-11-29T05:21:34.527Z,98268.34
2022-11-29T05:24:26.079Z,98269.66
2022-11-29T05:27:00.353Z,98275.91
2022-11-29T05:29:38.783Z,98281.25
2022-11-29T05:32:15.272Z,98282.22
2022-11-29T05:35:00.447Z,98278.81
2022-11-29T05:37:43.343Z,98285.50
2022-11-29T05:40:34.881Z,98285.31
2022-11-29T05:43:43.590Z,98285.25
2022-11-29T05:46:42.395Z,98280.13
2022-11-29T05:49:24.350Z,98287.94
2022-11-29T05:52:11.391Z,98293.09
2022-11-29T05:54:55.372Z,98283.84
2022-11-29T05:57:31.369Z,98287.94
2022-11-29T06:00:02.056Z,98288.91
2022-11-29T06:02:53.721Z,98294.91
2022-11-29T06:05:20.469Z,98296.66
2022-11-29T06:07:58.634Z,98295.13
2022-11-29T06:10:32.775Z,98292.66
2022-11-29T06:13:23.377Z,98289.28
2022-11-29T06:16:12.516Z,98301.97
2022-11-29T06:18:56.918Z,98303.31
2022-11-29T06:21:40.292Z,98301.53
2022-11-29T06:24:39.674Z,98308.59
2022-11-29T06:27:32.700Z,98307.78
2022-11-29T06:30:09.328Z,98313.50
2022-11-29T06:32:54.431Z,98317.72
2022-11-29T06:35:35.596Z,98307.59
2022-11-29T06:38:29.851Z,98321.28
2022-11-29T06:41:02.144Z,98316.13
2022-11-29T06:43:30.361Z,98319.84
2022-11-29T06:46:23.022Z,98313.91
2022-11-29T06:49:01.937Z,98324.13
2022-11-29T06:51:37.117Z,98322.25
2022-11-29T06:54:35.251Z,98322.31
2022-11-29T06:57:09.917Z,98332.44
2022-11-29T07:00:00.602Z,98332.22
2022-11-29T07:02:36.042Z,98324.56
2022-11-29T07:05:31.586Z,98321.22
2022-11-29T07:08:03.936Z,98331.38
2022-11-29T07:10:34.672Z,98330.47
2022-11-29T07:13:01.682Z,98341.41
2022-11-29T07:15:28.736Z,98336.25
2022-11-29T07:18:18.855Z,98344.00
2022-11-29T07:21:14.254Z,98337.91
2022-11-29T07:24:00.142Z,98337.19
2022-11-29T07:26:41.806Z,98351.63
2022-11-29T07:29:34.499Z,98345.72
2022-11-29T07:32:23.744Z,98351.56
2022-11-29T07:35:02.423Z,98354.81
2022-11-29T07:37:48.848Z,98349.63
2022-11-29T07:40:22.442Z,98347.28
2022-11-29T07:42:58.019Z,98350.56
2022-11-29T07:45:33.364Z,98354.00
2022-11-29T07:48:00.335Z,98351.38
2022-11-29T07:50:28.837Z,98347.88
2022-11-29T07:52:56.744Z,98341.16
2022-11-29T07:55:25.760Z,98350.28
2022-11-29T07:57:53.192Z,98347.47
2022-11-29T08:00:20.989Z,98356.84
2022-11-29T08:02:48.833Z,98353.34
2022-11-29T08:05:15.756Z,98352.41
2022-11-29T08:07:42.623Z,98353.34
2022-11-29T08:10:15.839Z,98360.06
2022-11-29T08:12:50.142Z,98363.44
2022-11-29T08:15:19.056Z,98360.81
2022-11-29T08:17:46.282Z,98360.72
2022-11-29T08:20:14.179Z,98355.19
2022-11-29T08:22:41.215Z,98358.31
2022-11-29T08:25:08.538Z,98361.88
2022-11-29T08:27:36.761Z,98364.19
2022-11-29T08:30:05.428Z,98361.06
2022-11-29T08:32:32.044Z,98362.63
2022-11-29T08:34:58.774Z,98363.50
2022-11-29T08:37:25.382Z,98372.63
2022-11-29T08:39:52.055Z,98365.63
2022-11-29T08:42:18.727Z,98367.31
2022-11-29T08:44:45.744Z,98364.69
2022-11-29T08:47:30.859Z,98372.34
2022-11-29T08:50:03.366Z,98374.16
2022-11-29T08:52:54.313Z,98370.19
2022-11-29T08:55:24.319Z,98376.75
2022-11-29T08:57:52.028Z,98382.75
2022-11-29T09:00:19.497Z,98377.44
2022-11-29T09:02:46.093Z,98384.97
2022-11-29T09:05:12.815Z,98379.19
2022-11-29T09:07:39.620Z,98378.41
2022-11-29T09:10:08.352Z,98378.41
2022-11-29T09:12:36.555Z,98385.09
2022-11-29T09:15:09.191Z,98384.88
2022-11-29T09:17:36.123Z,98388.97
2022-11-29T09:20:03.008Z,98394.22
2022-11-29T09:22:29.652Z,98392.53
2022-11-29T09:24:56.459Z,98401.88
2022-11-29T09:27:23.103Z,98400.72
2022-11-29T09:29:49.659Z,98403.22
2022-11-29T09:32:16.508Z,98399.13
2022-11-29T09:34:43.360Z,98405.84
2022-11-29T09:37:10.454Z,98388.38
2022-11-29T09:39:37.192Z,98393.28
2022-11-29T09:42:21.463Z,98395.75
2022-11-29T09:44:48.369Z,98396.47
2022-11-29T09:47:31.885Z,98403.09
2022-11-29T09:50:16.970Z,98400.66
2022-11-29T09:53:01.578Z,98396.94
2022-11-29T09:56:13.378Z,98395.38
2022-11-29T09:59:01.196Z,98390.25
2022-11-29T10:01:37.666Z,98389.41
2022-11-29T10:04:12.255Z,98400.28
2022-11-29T10:06:43.359Z,98394.22
2022-11-29T10:09:30.864Z,98392.34
2022-11-29T10:12:06.022Z,98391.47
2022-11-29T10:15:00.688Z,98394.53
2022-11-29T10:17:36.998Z,98394.09
2022-11-29T10:20:11.100Z,98390.13
2022-11-29T10:22:49.451Z,98391.47
2022-11-29T10:25:41.936Z,98383.50
2022-11-29T10:28:14.139Z,98379.47
2022-11-29T10:30:42.682Z,98387.72
2022-11-29T10:33:26.951Z,98376.56
2022-11-29T10:35:59.292Z,98375.75
2022-11-29T10:38:31.101Z,98375.56
2022-11-29T10:41:06.039Z,98368.59
2022-11-29T10:43:32.827Z,98371.00
2022-11-29T10:46:00.296Z,98373.44
2022-11-29T10:48:31.846Z,98359.63
2022-11-29T10:50:58.786Z,98360.78
2022-11-29T10:53:32.898Z,98359.00
2022-11-29T10:56:08.837Z,98355.47
2022-11-29T10:58:36.056Z,98366.47
2022-11-29T11:01:08.686Z,98360.44
2022-11-29T11:03:52.971Z,98362.25
2022-11-29T11:06:21.391Z,98351.00
2022-11-29T11:08:52.379Z,98352.59
2022-11-29T11:11:33.146Z,98344.72
2022-11-29T11:14:06.601Z,98354.13
2022-11-29T11:16:37.344Z,98352.44
2022-11-29T11:19:33.019Z,98340.22
2022-11-29T11:22:01.895Z,98347.13
2022-11-29T11:24:32.151Z,98342.72
2022-11-29T11:27:00.390Z,98339.16
2022-11-29T11:29:44.788Z,98342.56
2022-11-29T11:32:19.483Z,98340.28
2022-11-29T11:35:20.788Z,98339.31
2022-11-29T11:37:56.678Z,98339.88
2022-11-29T11:40:29.864Z,98336.34
2022-11-29T11:42:59.352Z,98333.88
2022-11-29T11:45:33.579Z,98338.91
2022-11-29T11:48:05.751Z,98339.47
2022-11-29T11:50:57.598Z,98335.16
2022-11-29T11:53:30.443Z,98337.50
2022-11-29T11:56:01.355Z,98335.91
2022-11-29T11:58:51.719Z,98336.75
2022-11-29T12:01:30.661Z,98333.09
2022-11-29T12:04:20.195Z,98336.16
2022-11-29T12:06:56.201Z,98327.44
2022-11-29T12:09:56.674Z,98339.03
2022-11-29T12:12:29.874Z,98342.06
2022-11-29T12:15:24.488Z,98339.91
2022-11-29T12:18:14.669Z,98339.91
2022-11-29T12:20:56.506Z,98345.66
2022-11-29T12:23:34.819Z,98344.69
2022-11-29T12:26:13.688Z,98345.28
2022-11-29T12:28:47.329Z,98344.84
2022-11-29T12:31:28.929Z,98355.19
2022-11-29T12:34:22.990Z,98343.84
2022-11-29T12:36:55.622Z,98345.22
2022-11-29T12:39:34.903Z,98337.75
2022-11-29T12:42:35.981Z,98338.59
2022-11-29T12:45:30.305Z,98346.19
2022-11-29T12:48:31.062Z,98341.91
2022-11-29T12:51:03.626Z,98351.00
2022-11-29T12:54:02.546Z,98338.31
2022-11-29T12:56:40.395Z,98339.00
2022-11-29T12:59:31.453Z,98339.66
2022-11-29T13:02:50.584Z,98337.59
2022-11-29T13:05:37.294Z,98343.41
2022-11-29T13:08:16.250Z,98340.78
2022-11-29T13:11:23.596Z,98340.47
2022-11-29T13:14:20.284Z,98340.56
2022-11-29T13:16:59.127Z,98343.03
2022-11-29T13:19:51.074Z,98334.56
2022-11-29T13:22:49.070Z,98336.13
2022-11-29T13:25:20.886Z,98336.22
2022-11-29T13:27:58.258Z,98339.66
2022-11-29T13:30:26.079Z,98340.28
2022-11-29T13:33:03.032Z,98338.47
2022-11-29T13:35:43.956Z,98341.25
2022-11-29T13:38:22.156Z,98335.44
2022-11-29T13:40:56.013Z,98343.00
2022-11-29T13:43:50.606Z,98338.69
2022-11-29T13:46:33.093Z,98336.00
2022-11-29T13:49:00.005Z,98338.53
2022-11-29T13:51:37.448Z,98332.63
2022-11-29T13:54:31.991Z,98339.38
2022-11-29T13:57:09.464Z,98345.47
2022-11-29T13:59:45.786Z,98345.41
2022-11-29T14:02:43.400Z,98342.28
2022-11-29T14:05:25.338Z,98339.50
2022-11-29T14:08:24.541Z,98346.44
2022-11-29T14:10:56.642Z,98348.63
2022-11-29T14:13:48.252Z,98344.63
2022-11-29T14:16:20.965Z,98346.22
2022-11-29T14:19:02.451Z,98347.13
2022-11-29T14:22:03.411Z,98351.00
2022-11-29T14:24:35.175Z,98341.41
2022-11-29T14:27:12.392Z,98345.09
2022-11-29T14:29:48.615Z,98353.50
2022-11-29T14:32:28.404Z,98357.03
2022-11-29T14:35:03.913Z,98361.25
2022-11-29T14:37:36.682Z,98358.59
2022-11-29T14:40:17.948Z,98359.56
2022-11-29T14:42:48.691Z,98355.22
2022-11-29T14:45:34.423Z,98366.44
2022-11-29T14:48:01.761Z,98356.69
2022-11-29T14:50:33.034Z,98355.09
2022-11-29T14:53:00.167Z,98352.69
2022-11-29T14:55:26.749Z,98360.63
2022-11-29T14:57:57.528Z,98362.44
2022-11-29T15:00:27.084Z,98360.56
2022-11-29T15:03:07.671Z,98355.88
2022-11-29T15:05:41.541Z,98357.63
2022-11-29T15:08:16.739Z,98363.84
2022-11-29T15:10:51.744Z,98359.75
2022-11-29T15:14:05.751Z,98358.84
2022-11-29T15:17:04.461Z,98366.59
2022-11-29T15:19:55.791Z,98359.00
2022-11-29T15:22:28.610Z,98370.88
2022-11-29T15:24:59.674Z,98377.84
2022-11-29T15:27:26.538Z,98371.16
2022-11-29T15:29:53.214Z,98368.47
2022-11-29T15:32:27.325Z,98364.94
2022-11-29T15:34:56.224Z,98371.78
2022-11-29T15:37:31.792Z,98370.00
2022-11-29T15:40:03.418Z,98382.63
2022-11-29T15:42:43.007Z,98384.88
2022-11-29T15:45:31.344Z,98381.19
2022-11-29T15:48:17.453Z,98386.34
2022-11-29T15:50:47.152Z,98379.50
2022-11-29T15:53:20.468Z,98387.47
2022-11-29T15:55:50.618Z,98377.47
2022-11-29T15:58:19.220Z,98389.94
2022-11-29T16:00:49.696Z,98386.63
2022-11-29T16:03:25.437Z,98390.75
2022-11-29T16:06:06.278Z,98396.78
2022-11-29T16:08:42.718Z,98392.56
2022-11-29T16:11:17.051Z,98391.72
2022-11-29T16:14:02.758Z,98389.06
2022-11-29T16:16:32.854Z,98386.56
2022-11-29T16:19:28.932Z,98400.81
2022-11-29T16:22:03.512Z,98400.91
2022-11-29T16:24:34.214Z,98394.16
2022-11-29T16:27:01.887Z,98396.50
2022-11-29T16:29:36.614Z,98400.81
2022-11-29T16:32:23.577Z,98401.63
2022-11-29T16:34:50.544Z,98409.50
2022-11-29T16:37:21.980Z,98407.84
2022-11-29T16:39:52.395Z,98410.41
2022-11-29T16:42:30.443Z,98405.91
2022-11-29T16:45:06.027Z,98412.81
2022-11-29T16:47:46.501Z,98417.59
2022-11-29T16:50:19.374Z,98409.28
2022-11-29T16:52:48.842Z,98417.03
2022-11-29T16:55:18.539Z,98410.41
2022-11-29T16:57:46.772Z,98408.94
2022-11-29T17:00:29.647Z,98418.69
2022-11-29T17:02:56.867Z,98430.69
2022-11-29T17:05:23.662Z,98428.06
2022-11-29T17:07:50.545Z,98426.69
2022-11-29T17:10:21.282Z,98418.75
2022-11-29T17:12:48.601Z,98427.50
2022-11-29T17:15:15.391Z,98430.97
2022-11-29T17:17:43.545Z,98418.22
2022-11-29T17:20:12.062Z,98425.09
2022-11-29T17:22:40.545Z,98426.75
2022-11-29T17:25:07.636Z,98432.91
2022-11-29T17:27:35.271Z,98434.72
2022-11-29T17:30:01.953Z,98442.56
2022-11-29T17:32:28.961Z,98437.94
2022-11-29T17:34:55.552Z,98434.59
2022-11-29T17:37:22.318Z,98442.75
2022-11-29T17:39:49.226Z,98441.88
2022-11-29T17:42:16.045Z,98442.88
2022-11-29T17:44:42.759Z,98450.03
2022-11-29T17:47:09.625Z,98452.38
2022-11-29T17:49:36.320Z,98454.66
2022-11-29T17:52:03.142Z,98441.88
2022-11-29T17:54:33.468Z,98451.50
2022-11-29T17:57:00.927Z,98453.91
2022-11-29T17:59:27.663Z,98455.50
2022-11-29T18:01:54.585Z,98455.38
2022-11-29T18:04:21.464Z,98455.31
2022-11-29T18:06:49.836Z,98458.88
2022-11-29T18:09:18.502Z,98459.16
2022-11-29T18:11:49.434Z,98460.94
2022-11-29T18:14:19.995Z,98455.69
2022-11-29T18:16:46.867Z,98454.56
2022-11-29T18:19:19.576Z,98462.22
2022-11-29T18:21:46.881Z,98459.84
2022-11-29T18:24:13.439Z,98458.88
2022-11-29T18:26:40.403Z,98455.81
2022-11-29T18:29:07.648Z,98455.50
2022-11-29T18:31:36.898Z,98461.88
2022-11-29T18:34:13.066Z,98456.59
2022-11-29T18:36:45.699Z,98455.00
2022-11-29T18:39:15.785Z,98461.50
2022-11-29T18:41:44.407Z,98453.97
2022-11-29T18:44:13.872Z,98468.41
2022-11-29T18:46:43.538Z,98456.97
2022-11-29T18:49:13.136Z,98463.56
2022-11-29T18:51:42.982Z,98460.09
2022-11-29T18:54:10.397Z,98466.31
2022-11-29T18:56:38.287Z,98464.50
2022-11-29T18:59:10.160Z,98474.63
2022-11-29T19:01:41.236Z,98472.81
2022-11-29T19:04:09.866Z,98470.31
2022-11-29T19:06:39.947Z,98468.47
2022-11-29T19:09:12.283Z,98463.34
2022-11-29T19:11:39.242Z,98469.81
2022-11-29T19:14:11.569Z,98472.16
2022-11-29T19:16:43.402Z,98468.66
2022-11-29T19:19:10.055Z,98467.19
2022-11-29T19:21:36.793Z,98471.78
2022-11-29T19:24:06.831Z,98467.38
2022-11-29T19:26:34.610Z,98472.44
2022-11-29T19:29:02.426Z,98474.84
2022-11-29T19:31:29.416Z,98472.16
2022-11-29T19:33:57.909Z,98476.13
2022-11-29T19:36:27.366Z,98474.38
2022-11-29T19:38:55.150Z,98477.84
2022-11-29T19:41:28.056Z,98478.53
2022-11-29T19:43:59.278Z,98477.00
2022-11-29T19:46:29.578Z,98483.91
2022-11-29T19:48:58.489Z,98482.53
2022-11-29T19:51:26.894Z,98483.34
2022-11-29T19:53:55.832Z,98485.00
2022-11-29T19:56:23.545Z,98480.91
2022-11-29T19:58:51.317Z,98480.78
2022-11-29T20:01:20.503Z,98486.91
2022-11-29T20:03:47.274Z,98487.31
2022-11-29T20:06:14.276Z,98492.16
2022-11-29T20:08:41.521Z,98495.16
2022-11-29T20:11:18.255Z,98475.34
2022-11-29T20:13:47.911Z,98503.06
2022-11-29T20:16:17.058Z,98506.78
2022-11-29T20:18:50.420Z,98504.34
2022-11-29T20:21:31.127Z,98502.75
2022-11-29T20:24:02.702Z,98511.09
2022-11-29T20:26:30.995Z,98510.41
2022-11-29T20:28:57.548Z,98506.06
2022-11-29T20:31:24.392Z,98505.50
2022-11-29T20:33:53.209Z,98512.56
2022-11-29T20:36:35.178Z,98515.38
2022-11-29T20:39:08.762Z,98513.47
2022-11-29T20:42:07.779Z,98511.88
2022-11-29T20:44:39.722Z,98519.16
2022-11-29T20:47:17.857Z,98531.56
2022-11-29T20:49:45.079Z,98519.59
2022-11-29T20:53:09.040Z,98525.38
2022-11-29T20:55:42.494Z,98528.88
2022-11-29T20:58:13.051Z,98525.38
2022-11-29T21:00:39.753Z,98519.91
2022-11-29T21:03:06.859Z,98525.94
2022-11-29T21:05:33.626Z,98521.59
2022-11-29T21:08:00.318Z,98522.88
2022-11-29T21:10:26.988Z,98523.63
2022-11-29T21:12:53.934Z,98522.34
2022-11-29T21:15:21.108Z,98523.06
2022-11-29T21:17:48.192Z,98519.59
2022-11-29T21:20:26.233Z,98520.31
2022-11-29T21:23:00.938Z,98505.81
2022-11-29T21:25:27.653Z,98509.03
2022-11-29T21:27:54.955Z,98508.22
2022-11-29T21:30:24.040Z,98510.78
2022-11-29T21:32:51.378Z,98496.03
2022-11-29T21:35:18.269Z,98510.69
2022-11-29T21:37:45.571Z,98501.97
2022-11-29T21:40:14.159Z,98500.34
2022-11-29T21:42:41.121Z,98501.09
2022-11-29T21:45:13.466Z,98505.44
2022-11-29T21:47:42.265Z,98507.78
2022-11-29T21:50:09.235Z,98504.41
2022-11-29T21:52:35.971Z,98499.38
2022-11-29T21:55:02.808Z,98501.03
2022-11-29T21:57:29.562Z,98490.94
2022-11-29T21:59:56.173Z,98476.75
2022-11-29T22:02:23.249Z,98501.81
2022-11-29T22:04:50.012Z,98489.91
2022-11-29T22:07:16.832Z,98495.84
2022-11-29T22:09:43.556Z,98490.72
2022-11-29T22:12:32.324Z,98494.00
2022-11-29T22:14:57.075Z,98491.94
2022-11-29T22:17:23.822Z,98497.06
2022-11-29T22:19:50.495Z,98493.56
2022-11-29T22:22:17.255Z,98491.16
2022-11-29T22:24:44.208Z,98493.03
2022-11-29T22:27:12.305Z,98494.81
2022-11-29T22:29:38.947Z,98500.00
2022-11-29T22:32:06.237Z,98501.66
2022-11-29T22:34:33.036Z,98495.75
2022-11-29T22:36:59.656Z,98506.72
2022-11-29T22:39:26.619Z,98502.47
2022-11-29T22:41:54.969Z,98499.94
2022-11-29T22:44:25.618Z,98488.97
2022-11-29T22:46:52.386Z,98493.19
2022-11-29T22:49:19.173Z,98503.13
2022-11-29T22:51:45.959Z,98498.91
2022-11-29T22:54:15.457Z,98495.59
2022-11-29T22:56:43.984Z,98498.97
2022-11-29T22:59:10.938Z,98503.00
2022-11-29T23:01:39.722Z,98504.72
2022-11-29T23:04:10.103Z,98503.19
2022-11-29T23:06:38.644Z,98502.41
2022-11-29T23:09:19.779Z,98504.78
2022-11-29T23:11:51.026Z,98503.94
2022-11-29T23:14:18.232Z,98497.44
2022-11-29T23:16:44.917Z,98497.56
2022-11-29T23:19:11.760Z,98489.16
2022-11-29T23:21:39.924Z,98495.91
2022-11-29T23:24:06.935Z,98492.53
2022-11-29T23:26:40.294Z,98490.66
2022-11-29T23:29:10.918Z,98485.50
2022-11-29T23:31:37.969Z,98485.31
2022-11-29T23:34:05.436Z,98486.25
2022-11-29T23:36:32.338Z,98480.44
2022-11-29T23:38:59.054Z,98481.28
2022-11-29T23:41:25.980Z,98480.59
2022-11-29T23:43:52.777Z,98485.00
2022-11-29T23:46:22.249Z,98474.00
2022-11-29T23:48:49.341Z,98467.50
2022-11-29T23:51:17.313Z,98479.19
2022-11-29T23:53:44.410Z,98475.69
2022-11-29T23:56:16.463Z,98475.75
2022-11-29T23:58:44.291Z,98467.13
